Time;durP1;ratioP1;P1;durP2;ratioP2;P2;SDS_P1;SDS_P2;PMS_P1;PMS_P2;Temp;Humidity;BMP_temperature;BMP_pressure;BME280_temperature;BME280_humidity;BME280_pressure;Samples;Min_cycle;Max_cycle;Signal;HPM_P1;HPM_P2
2022/06/17 00:02:12;;;;;;;1.80;1.17;;;;;;;19.83;66.85;100045.28;4415261;32;33462;-84
2022/06/17 00:04:41;;;;;;;2.28;1.58;;;;;;;19.81;66.75;100038.34;4413524;32;33073;-84
2022/06/17 00:07:13;;;;;;;2.08;1.35;;;;;;;19.89;66.25;100035.91;4404524;32;33745;-84
2022/06/17 00:09:41;;;;;;;2.67;1.30;;;;;;;19.93;66.04;100037.37;4427293;32;34489;-84
2022/06/17 00:12:13;;;;;;;1.98;1.75;;;;;;;19.76;66.68;100041.38;4406797;32;34056;-84
2022/06/17 00:17:29;;;;;;;2.10;1.50;;;;;;;19.62;66.69;100039.78;4420291;32;33140;-84
2022/06/17 00:19:57;;;;;;;1.95;1.50;;;;;;;19.55;66.91;100032.28;4400661;32;32581;-84
2022/06/17 00:22:25;;;;;;;2.20;1.42;;;;;;;19.75;66.16;100033.44;4408286;32;31873;-84
2022/06/17 00:24:53;;;;;;;3.35;2.42;;;;;;;19.47;66.91;100030.22;4418468;32;32564;-84
2022/06/17 00:27:21;;;;;;;4.22;1.65;;;;;;;19.55;66.66;100038.50;4414976;32;33834;-84
2022/06/17 00:29:49;;;;;;;1.77;1.40;;;;;;;19.53;66.75;100044.97;4413217;32;34452;-84
2022/06/17 00:32:16;;;;;;;3.12;1.33;;;;;;;19.57;66.56;100041.94;4418738;32;33911;-84
2022/06/17 00:34:46;;;;;;;2.70;1.58;;;;;;;19.59;66.38;100037.28;4409862;32;33091;-84
2022/06/17 00:37:14;;;;;;;6.90;1.87;;;;;;;19.39;67.27;100037.97;4411438;32;32956;-84
2022/06/17 00:39:42;;;;;;;1.85;1.70;;;;;;;19.48;67.06;100047.13;4412239;32;34024;-85
2022/06/17 00:42:14;;;;;;;2.70;1.70;;;;;;;19.40;67.45;100058.44;4414253;32;33408;-85
2022/06/17 00:45:04;;;;;;;2.37;1.67;;;;;;;19.59;66.60;100050.69;4412864;32;33318;-84
2022/06/17 00:47:38;;;;;;;1.92;1.60;;;;;;;19.23;67.63;100045.47;4420131;32;34158;-84
2022/06/17 00:50:09;;;;;;;7.28;1.60;;;;;;;19.32;67.28;100037.59;4408637;32;33117;-85
2022/06/17 00:52:42;;;;;;;1.90;1.60;;;;;;;19.33;66.98;100028.59;4410845;32;34426;-84
2022/06/17 00:55:21;;;;;;;4.28;1.62;;;;;;;19.31;66.86;100027.84;4400327;32;33825;-84
2022/06/17 00:57:49;;;;;;;1.73;1.55;;;;;;;19.28;67.05;100027.25;4419366;32;33555;-84
2022/06/17 01:00:21;;;;;;;3.00;1.55;;;;;;;19.29;67.01;100021.78;4415678;32;34713;-85
2022/06/17 01:03:00;;;;;;;4.12;1.90;;;;;;;19.33;66.66;100025.06;4410791;32;33842;-84
2022/06/17 01:05:38;;;;;;;2.22;1.60;;;;;;;19.22;67.05;100028.53;4417519;32;32572;-84
2022/06/17 01:09:56;;;;;;;2.58;1.75;;;;;;;19.19;66.90;100026.97;4415916;32;32939;-84
2022/06/17 01:11:07;;;;;;;2.60;1.90;;;;;;;19.15;66.94;100022.81;4416106;32;33718;-84
2022/06/17 01:13:36;;;;;;;1.90;1.27;;;;;;;19.20;66.61;100035.84;4411816;32;33555;-84
2022/06/17 01:16:04;;;;;;;3.37;1.50;;;;;;;19.11;67.12;100039.22;4416208;32;33703;-84
2022/06/17 01:18:36;;;;;;;1.80;1.60;;;;;;;19.17;66.75;100039.59;4413853;32;33505;-85
2022/06/17 01:21:15;;;;;;;2.50;1.73;;;;;;;19.04;67.30;100038.84;4411483;32;33901;-85
2022/06/17 01:23:43;;;;;;;1.73;1.40;;;;;;;19.09;67.09;100031.31;4403488;32;33782;-85
2022/06/17 01:26:12;;;;;;;2.90;1.58;;;;;;;18.95;67.31;100038.69;4413633;32;31814;-85
2022/06/17 01:28:40;;;;;;;2.72;1.92;;;;;;;19.22;66.48;100035.72;4425878;32;33105;-85
2022/06/17 01:31:08;;;;;;;1.48;1.35;;;;;;;19.24;66.26;100034.66;4413067;32;33213;-84
2022/06/17 01:33:39;;;;;;;3.28;1.85;;;;;;;19.09;66.90;100042.03;4419485;32;32720;-83
2022/06/17 01:36:16;;;;;;;3.62;1.50;;;;;;;19.17;66.79;100044.94;4401625;32;33528;-84
2022/06/17 01:38:49;;;;;;;2.62;2.00;;;;;;;19.17;66.86;100061.00;4415209;32;33923;-84
2022/06/17 01:41:19;;;;;;;1.98;1.65;;;;;;;19.15;66.72;100062.97;4416578;32;34144;-84
2022/06/17 01:43:52;;;;;;;1.80;1.60;;;;;;;19.25;66.41;100054.25;4412781;32;34266;-84
2022/06/17 01:46:39;;;;;;;2.37;1.50;;;;;;;19.04;67.05;100057.56;4414078;32;32612;-83
2022/06/17 01:49:13;;;;;;;6.60;2.53;;;;;;;19.01;67.28;100063.16;4414907;32;32700;-84
2022/06/17 01:51:44;;;;;;;4.72;2.22;;;;;;;18.88;67.84;100067.69;4413665;32;34716;-86
2022/06/17 01:54:17;;;;;;;5.62;1.85;;;;;;;19.14;66.80;100063.94;4414691;32;34739;-84
2022/06/17 01:56:46;;;;;;;2.37;2.03;;;;;;;18.53;68.99;100076.44;4419006;32;32255;-85
2022/06/17 01:59:18;;;;;;;4.00;2.90;;;;;;;18.54;69.09;100072.81;4402876;32;33153;-85
2022/06/17 02:01:49;;;;;;;3.53;2.17;;;;;;;18.39;69.76;100074.75;4413186;32;34742;-85
2022/06/17 02:04:21;;;;;;;4.70;2.62;;;;;;;18.31;70.32;100086.97;4415320;32;34563;-84
2022/06/17 02:06:58;;;;;;;3.00;2.62;;;;;;;18.54;69.24;100074.63;4414428;32;32068;-84
2022/06/17 02:09:27;;;;;;;5.10;2.80;;;;;;;18.52;69.57;100080.09;4402421;32;34571;-84
2022/06/17 02:11:59;;;;;;;3.10;2.37;;;;;;;18.67;68.66;100076.31;4418833;32;34019;-85
2022/06/17 02:14:29;;;;;;;3.60;2.60;;;;;;;18.53;69.23;100079.12;4413230;32;32986;-85
2022/06/17 02:16:58;;;;;;;3.45;2.17;;;;;;;18.59;69.06;100077.81;4411980;32;33838;-85
2022/06/17 02:19:31;;;;;;;3.97;2.70;;;;;;;18.89;68.04;100070.25;4418882;32;34649;-85
2022/06/17 02:22:10;;;;;;;2.97;2.60;;;;;;;18.92;67.69;100072.69;4421457;32;34003;-85
2022/06/17 02:24:39;;;;;;;2.90;2.60;;;;;;;18.70;68.30;100072.56;4416571;32;34638;-85
2022/06/17 02:27:09;;;;;;;2.83;2.33;;;;;;;18.49;68.78;100069.59;4415584;32;33082;-85
2022/06/17 02:29:38;;;;;;;5.15;3.00;;;;;;;18.71;68.27;100068.09;4405324;32;33886;-84
2022/06/17 02:32:07;;;;;;;3.92;2.75;;;;;;;18.41;68.95;100067.47;4421574;32;34391;-84
2022/06/17 02:34:47;;;;;;;3.95;2.70;;;;;;;18.54;68.81;100062.09;4402868;32;33483;-84
2022/06/17 02:37:17;;;;;;;4.15;2.72;;;;;;;18.51;69.02;100073.00;4422240;32;32559;-84
2022/06/17 02:39:48;;;;;;;6.97;3.80;;;;;;;18.48;69.35;100067.91;4406112;32;34290;-84
2022/06/17 02:42:24;;;;;;;4.90;3.20;;;;;;;18.44;69.41;100071.75;4423988;32;34075;-86
2022/06/17 02:45:00;;;;;;;6.32;3.20;;;;;;;18.47;69.48;100074.22;4403759;32;32681;-86
2022/06/17 02:47:29;;;;;;;6.20;3.47;;;;;;;18.48;69.29;100080.44;4412973;32;33155;-85
2022/06/17 02:49:58;;;;;;;4.72;3.35;;;;;;;18.45;69.65;100076.12;4421679;32;33990;-85
2022/06/17 02:52:35;;;;;;;4.95;3.22;;;;;;;18.57;69.05;100079.75;4412762;32;33769;-85
2022/06/17 02:55:32;;;;;;;3.67;3.22;;;;;;;18.27;70.10;100090.81;4413402;32;32601;-85
2022/06/17 02:58:16;;;;;;;3.50;2.95;;;;;;;18.48;69.52;100083.94;4399481;32;33286;-86
2022/06/17 03:00:45;;;;;;;4.53;3.40;;;;;;;18.35;69.79;100083.12;4402481;32;33774;-84
2022/06/17 03:03:16;;;;;;;3.97;3.17;;;;;;;18.51;69.46;100088.22;4415930;32;32653;-84
2022/06/17 03:05:45;;;;;;;3.37;3.08;;;;;;;18.62;69.08;100080.28;4405434;32;33332;-84
2022/06/17 03:08:23;;;;;;;3.97;3.25;;;;;;;18.33;69.98;100077.03;4414868;32;34022;-84
2022/06/17 03:10:53;;;;;;;3.70;3.28;;;;;;;18.52;69.30;100071.22;4414072;32;32935;-84
2022/06/17 03:13:31;;;;;;;3.90;3.30;;;;;;;18.60;68.75;100066.16;4416545;32;33879;-84
2022/06/17 03:16:02;;;;;;;6.62;2.80;;;;;;;18.50;69.20;100065.13;4413230;32;32333;-85
2022/06/17 03:18:31;;;;;;;3.70;3.40;;;;;;;18.36;69.90;100071.44;4414807;32;33663;-85
2022/06/17 03:21:02;;;;;;;6.55;3.47;;;;;;;18.26;70.21;100073.06;4420181;32;32467;-86
2022/06/17 03:23:39;;;;;;;4.90;3.60;;;;;;;18.34;70.46;100062.69;4407280;32;33249;-84
2022/06/17 03:26:12;;;;;;;3.72;3.37;;;;;;;18.45;70.00;100070.78;4420508;32;33781;-83
2022/06/17 03:28:45;;;;;;;5.20;3.17;;;;;;;18.37;70.67;100075.81;4408062;32;32099;-83
2022/06/17 03:31:21;;;;;;;5.53;3.25;;;;;;;18.43;70.25;100078.09;4413188;32;34799;-84
2022/06/17 03:33:59;;;;;;;6.57;3.37;;;;;;;18.37;70.37;100086.53;4420297;32;33568;-84
2022/06/17 03:36:35;;;;;;;7.12;3.80;;;;;;;18.50;70.55;100076.66;4415082;32;33597;-84
2022/06/17 03:39:10;;;;;;;3.97;3.47;;;;;;;18.43;71.11;100081.59;4406468;32;31781;-83
2022/06/17 03:41:51;;;;;;;4.03;3.62;;;;;;;18.67;70.21;100076.31;4414194;32;33188;-84
2022/06/17 03:44:21;;;;;;;3.97;3.22;;;;;;;18.84;69.22;100080.44;4402819;32;33798;-83
2022/06/17 03:46:55;;;;;;;5.55;3.30;;;;;;;19.03;68.80;100084.44;4407715;32;33776;-83
2022/06/17 03:49:44;;;;;;;6.90;3.47;;;;;;;18.98;69.07;100094.63;4402796;32;32735;-84
2022/06/17 03:52:24;;;;;;;8.32;3.78;;;;;;;19.12;68.82;100097.97;4413383;32;33112;-84
2022/06/17 03:54:54;;;;;;;3.42;2.67;;;;;;;19.23;67.97;100090.97;4413360;32;33885;-83
2022/06/17 03:57:23;;;;;;;3.40;3.10;;;;;;;19.30;67.76;100097.59;4413487;32;33232;-83
2022/06/17 03:59:52;;;;;;;4.00;3.47;;;;;;;19.31;67.87;100105.50;4419688;32;34086;-85
2022/06/17 04:02:22;;;;;;;3.83;3.50;;;;;;;19.49;67.52;100107.75;4413619;32;33392;-85
2022/06/17 04:04:53;;;;;;;5.35;3.47;;;;;;;19.39;67.84;100100.41;4414948;32;33958;-85
2022/06/17 04:07:23;;;;;;;4.25;2.92;;;;;;;19.69;66.76;100105.28;4415640;32;32708;-85
2022/06/17 04:09:52;;;;;;;3.83;3.37;;;;;;;19.68;67.03;100108.09;4414237;32;33091;-85
2022/06/17 04:12:30;;;;;;;3.25;2.60;;;;;;;19.86;66.71;100105.84;4403458;32;33858;-85
2022/06/17 04:15:30;;;;;;;5.57;3.35;;;;;;;19.84;66.37;100105.94;4428936;32;33435;-85
2022/06/17 04:17:58;;;;;;;4.37;3.10;;;;;;;19.95;66.54;100113.16;4400663;32;33982;-85
2022/06/17 04:20:40;;;;;;;5.53;2.90;;;;;;;20.08;65.89;100115.72;4412079;32;33780;-85
2022/06/17 04:23:17;;;;;;;6.53;3.28;;;;;;;20.02;66.07;100117.06;4407002;32;35658;-85
2022/06/17 04:26:02;;;;;;;3.72;3.03;;;;;;;20.25;65.76;100130.50;4416164;32;33197;-85
2022/06/17 04:28:37;;;;;;;6.47;3.85;;;;;;;20.21;66.08;100128.03;4414273;32;33477;-84
2022/06/17 04:31:11;;;;;;;4.87;3.45;;;;;;;20.39;65.31;100117.69;4408183;32;32717;-84
2022/06/17 04:33:45;;;;;;;3.97;3.30;;;;;;;20.23;66.15;100124.41;4400423;32;33159;-84
2022/06/17 04:36:30;;;;;;;3.70;3.05;;;;;;;20.24;66.31;100120.75;4413949;32;33258;-84
2022/06/17 04:39:01;;;;;;;5.10;2.92;;;;;;;20.57;64.47;100123.47;4415361;32;33805;-86
2022/06/17 04:41:36;;;;;;;5.62;2.97;;;;;;;20.68;64.50;100115.37;4413131;32;33701;-84
2022/06/17 04:44:06;;;;;;;3.28;2.83;;;;;;;20.83;64.34;100117.81;4414435;32;32582;-84
2022/06/17 04:46:44;;;;;;;5.60;2.83;;;;;;;20.64;64.88;100123.81;4414690;32;33370;-84
2022/06/17 04:49:18;;;;;;;6.80;2.75;;;;;;;20.47;64.80;100127.84;4404348;32;32465;-85
2022/06/17 04:51:56;;;;;;;2.67;2.47;;;;;;;20.57;64.52;100112.72;4414615;32;32990;-84
2022/06/17 04:54:28;;;;;;;4.20;2.60;;;;;;;20.91;63.83;100115.37;4399981;32;33153;-85
2022/06/17 04:57:04;;;;;;;3.97;2.17;;;;;;;20.69;64.65;100111.72;4417444;32;34500;-85
2022/06/17 04:59:41;;;;;;;2.05;1.70;;;;;;;20.94;63.70;100109.75;4405821;32;32877;-84
2022/06/17 05:02:16;;;;;;;4.30;2.53;;;;;;;20.82;64.37;100110.75;4406598;32;32609;-85
2022/06/17 05:04:48;;;;;;;6.15;2.00;;;;;;;20.95;64.48;100112.31;4404993;32;33847;-85
2022/06/17 05:07:18;;;;;;;3.08;1.55;;;;;;;20.84;63.67;100108.78;4417366;32;33856;-84
2022/06/17 05:10:04;;;;;;;2.87;1.67;;;;;;;21.19;62.91;100112.09;4407157;32;35288;-85
2022/06/17 05:12:42;;;;;;;3.03;1.23;;;;;;;21.45;62.07;100114.47;4404999;32;33577;-84
2022/06/17 05:15:17;;;;;;;1.62;1.33;;;;;;;21.26;61.45;100119.66;4402792;32;35114;-83
2022/06/17 05:17:50;;;;;;;2.20;1.80;;;;;;;21.24;62.16;100117.09;4415665;32;33841;-84
2022/06/17 05:20:22;;;;;;;3.83;1.50;;;;;;;21.34;61.41;100120.75;4403663;32;32423;-83
2022/06/17 05:22:56;;;;;;;1.02;0.98;;;;;;;21.28;61.83;100115.03;4401787;32;33279;-84
2022/06/17 05:25:35;;;;;;;2.60;1.40;;;;;;;21.64;60.24;100114.63;4402779;32;32872;-84
2022/06/17 05:28:07;;;;;;;2.42;1.20;;;;;;;21.68;60.17;100104.47;4400553;32;33067;-84
2022/06/17 05:30:38;;;;;;;4.45;1.48;;;;;;;21.84;58.98;100101.31;4403186;32;34501;-85
2022/06/17 05:33:11;;;;;;;1.67;1.45;;;;;;;22.04;58.64;100100.47;4412028;32;31331;-86
2022/06/17 05:35:41;;;;;;;4.20;1.35;;;;;;;22.26;58.29;100104.00;4416259;32;34304;-85
2022/06/17 05:38:11;;;;;;;3.63;1.30;;;;;;;22.26;57.52;100104.00;4412878;32;34254;-85
2022/06/17 05:40:41;;;;;;;2.67;1.25;;;;;;;22.26;58.20;100106.69;4417584;32;33593;-86
2022/06/17 05:43:11;;;;;;;4.10;1.98;;;;;;;22.53;57.48;100106.94;4342422;32;1997721;-84
2022/06/17 05:45:41;;;;;;;2.85;1.45;;;;;;;22.43;57.97;100106.91;4415623;32;32528;-84
2022/06/17 05:48:09;;;;;;;2.12;1.20;;;;;;;22.88;56.02;100122.66;4403278;32;34484;-83
2022/06/17 05:50:37;;;;;;;2.33;1.73;;;;;;;22.82;55.85;100127.72;4400522;32;33784;-84
2022/06/17 05:53:10;;;;;;;1.55;1.15;;;;;;;22.75;55.66;100136.34;4414292;32;32654;-85
2022/06/17 05:55:41;;;;;;;2.10;1.35;;;;;;;22.81;55.32;100132.25;4400641;32;33658;-85
2022/06/17 05:58:10;;;;;;;4.20;1.30;;;;;;;22.88;55.32;100135.25;4413819;32;33997;-85
2022/06/17 06:00:44;;;;;;;1.37;1.25;;;;;;;22.81;54.99;100147.56;4389421;32;33970;-85
2022/06/17 06:03:25;;;;;;;4.60;1.45;;;;;;;22.69;54.97;100146.78;4415527;32;33093;-85
2022/06/17 06:05:54;;;;;;;1.65;1.40;;;;;;;23.04;54.29;100145.53;4411418;32;32832;-86
2022/06/17 06:08:27;;;;;;;2.80;1.70;;;;;;;22.71;54.91;100153.75;4416527;32;33330;-85
2022/06/17 06:10:56;;;;;;;2.22;1.37;;;;;;;22.75;55.65;100149.81;4416399;32;33887;-87
2022/06/17 06:13:24;;;;;;;3.53;1.30;;;;;;;22.85;56.03;100151.69;4414829;32;34024;-87
2022/06/17 06:15:56;;;;;;;2.25;1.30;;;;;;;23.01;54.86;100149.34;4390612;32;33980;-86
2022/06/17 06:21:10;;;;;;;;;;;;;;;22.83;54.84;100161.72;4412436;32;34076;-85
2022/06/17 06:23:41;;;;;;;2.33;1.00;;;;;;;23.10;54.53;100158.44;4400076;32;31683;-86
2022/06/17 06:26:17;;;;;;;1.77;1.48;;;;;;;23.28;54.28;100159.47;4405416;32;32516;-87
2022/06/17 06:28:51;;;;;;;2.78;1.67;;;;;;;23.20;54.40;100160.16;4401263;32;33247;-86
2022/06/17 06:31:34;;;;;;;2.90;1.60;;;;;;;23.08;54.40;100161.28;4412723;32;33634;-86
2022/06/17 06:34:03;;;;;;;2.22;1.37;;;;;;;23.31;53.84;100166.41;4422666;32;33034;-87
2022/06/17 06:36:33;;;;;;;3.90;1.30;;;;;;;23.13;54.27;100169.78;4399044;32;33980;-87
2022/06/17 06:39:03;;;;;;;2.45;2.08;;;;;;;23.09;54.48;100178.28;4401995;32;33595;-87
2022/06/17 06:41:31;;;;;;;4.03;1.70;;;;;;;23.18;54.20;100177.47;4425970;32;35173;-87
2022/06/17 06:44:00;;;;;;;2.97;1.15;;;;;;;23.12;53.99;100178.00;4400954;32;33881;-86
2022/06/17 06:46:31;;;;;;;3.60;1.90;;;;;;;23.37;53.17;100176.66;4402990;32;32835;-86
2022/06/17 06:49:01;;;;;;;2.78;1.70;;;;;;;23.05;54.20;100175.00;4406870;32;32802;-87
2022/06/17 06:51:31;;;;;;;3.55;1.23;;;;;;;23.26;53.72;100169.50;4418667;32;34368;-87
2022/06/17 06:53:59;;;;;;;1.45;1.35;;;;;;;23.37;53.23;100179.34;4417390;32;33015;-86
2022/06/17 06:56:29;;;;;;;1.95;1.65;;;;;;;23.35;54.23;100174.06;4403183;32;32963;-87
2022/06/17 06:58:57;;;;;;;1.67;1.48;;;;;;;23.54;54.15;100172.37;4404287;32;32905;-85
2022/06/17 07:01:45;;;;;;;2.45;1.75;;;;;;;23.95;53.40;100168.59;4416752;32;34054;-86
2022/06/17 07:04:17;;;;;;;7.18;1.35;;;;;;;23.93;52.67;100173.28;4417302;32;33043;-86
2022/06/17 07:06:51;;;;;;;3.33;2.03;;;;;;;24.09;50.57;100178.06;4415849;32;32487;-86
2022/06/17 07:09:22;;;;;;;2.75;1.30;;;;;;;23.79;52.00;100174.56;4414749;32;34064;-86
2022/06/17 07:11:50;;;;;;;3.55;1.30;;;;;;;24.25;50.37;100178.31;4406186;32;32290;-86
2022/06/17 07:14:19;;;;;;;2.45;1.33;;;;;;;24.08;51.52;100181.78;4397653;32;31916;-86
2022/06/17 07:16:49;;;;;;;2.37;1.48;;;;;;;23.85;51.31;100173.97;4417254;32;33553;-90
2022/06/17 07:19:19;;;;;;;1.77;1.40;;;;;;;24.46;50.77;100173.63;4416360;32;32551;-85
2022/06/17 07:21:51;;;;;;;3.00;1.67;;;;;;;24.47;49.45;100182.56;4403904;32;34010;-85
2022/06/17 07:24:21;;;;;;;5.40;1.58;;;;;;;24.70;50.10;100188.44;4407781;32;32604;-85
2022/06/17 07:26:50;;;;;;;1.48;1.37;;;;;;;24.98;47.67;100192.03;4417009;32;33560;-85
2022/06/17 07:29:18;;;;;;;4.25;1.15;;;;;;;25.27;49.14;100186.47;4411962;32;33952;-85
2022/06/17 07:31:49;;;;;;;2.15;1.70;;;;;;;25.33;47.10;100179.59;4414938;32;33773;-85
2022/06/17 07:34:19;;;;;;;1.50;1.40;;;;;;;25.67;48.28;100187.88;4420531;32;33430;-85
2022/06/17 07:39:54;;;;;;;2.97;1.75;;;;;;;25.53;48.92;100189.25;4406229;32;33476;-86
2022/06/17 07:42:37;;;;;;;2.22;1.77;;;;;;;25.73;47.03;100190.84;4401576;32;33271;-85
2022/06/17 07:45:17;;;;;;;2.30;1.77;;;;;;;25.72;47.36;100197.22;4404992;32;32529;-85
2022/06/17 07:47:49;;;;;;;3.42;1.75;;;;;;;25.97;46.39;100186.66;4433003;32;32514;-84
2022/06/17 07:50:25;;;;;;;5.07;2.00;;;;;;;25.94;46.36;100184.28;4418291;32;33706;-85
2022/06/17 07:52:55;;;;;;;2.75;1.85;;;;;;;26.08;47.84;100186.41;4407399;32;32815;-85
2022/06/17 07:55:25;;;;;;;3.47;1.80;;;;;;;26.32;48.03;100180.31;4418663;32;33437;-83
2022/06/17 07:57:54;;;;;;;5.15;1.80;;;;;;;26.51;46.05;100182.84;4409450;32;34811;-84
2022/06/17 08:00:35;;;;;;;2.60;1.80;;;;;;;26.19;47.10;100188.84;4420088;32;32939;-85
2022/06/17 08:03:12;;;;;;;4.60;1.60;;;;;;;26.20;48.93;100187.84;4419940;32;32640;-86
2022/06/17 08:05:42;;;;;;;1.30;1.10;;;;;;;26.62;46.37;100186.28;4408853;32;31912;-86
2022/06/17 08:08:21;;;;;;;3.28;2.78;;;;;;;26.64;45.91;100185.13;4411802;32;34546;-86
2022/06/17 08:10:58;;;;;;;2.62;1.70;;;;;;;27.22;45.34;100176.22;4407617;32;33389;-86
2022/06/17 08:13:31;;;;;;;2.87;2.12;;;;;;;27.12;44.62;100180.94;4395968;32;34450;-84
2022/06/17 08:16:10;;;;;;;4.05;1.65;;;;;;;27.27;44.54;100182.00;4397680;32;32034;-86
2022/06/17 08:18:40;;;;;;;5.62;2.00;;;;;;;27.37;44.29;100195.41;4415307;32;33958;-88
2022/06/17 08:21:12;;;;;;;2.97;2.10;;;;;;;27.29;44.45;100188.09;4417945;32;34327;-85
2022/06/17 08:23:42;;;;;;;4.30;1.85;;;;;;;27.48;44.40;100186.09;4424675;32;33814;-85
2022/06/17 08:26:13;;;;;;;4.00;1.73;;;;;;;27.57;42.57;100185.94;4413247;32;33788;-84
2022/06/17 08:28:43;;;;;;;3.83;2.15;;;;;;;27.65;43.41;100184.28;4399900;32;32793;-85
2022/06/17 08:31:12;;;;;;;2.42;1.80;;;;;;;28.08;44.60;100183.13;4409199;32;33860;-85
2022/06/17 08:33:43;;;;;;;2.90;1.60;;;;;;;28.26;45.33;100186.50;4413180;32;33106;-85
2022/06/17 08:36:17;;;;;;;3.55;1.90;;;;;;;28.40;44.07;100182.28;4420645;32;31573;-86
2022/06/17 08:38:53;;;;;;;1.90;1.70;;;;;;;28.45;42.91;100179.03;4405005;32;33087;-85
2022/06/17 08:42:09;;;;;;;4.70;2.17;;;;;;;28.29;42.95;100180.72;4417574;32;33286;-82
2022/06/17 08:45:05;;;;;;;3.45;2.05;;;;;;;28.22;45.18;100179.72;4399958;32;32561;-85
2022/06/17 08:47:42;;;;;;;1.55;1.45;;;;;;;28.71;41.17;100176.91;4415752;32;32690;-85
2022/06/17 08:50:35;;;;;;;4.18;1.55;;;;;;;28.99;40.75;100182.78;4428489;32;33268;-85
2022/06/17 08:53:12;;;;;;;3.50;2.05;;;;;;;29.17;37.85;100179.81;4401367;32;33309;-85
2022/06/17 08:56:11;;;;;;;1.87;0.95;;;;;;;29.07;36.05;100187.34;4417498;32;34026;-86
2022/06/17 08:58:59;;;;;;;6.60;1.80;;;;;;;29.07;33.34;100190.06;4414218;32;32702;-86
2022/06/17 09:01:44;;;;;;;1.92;1.37;;;;;;;28.91;40.51;100195.53;4400535;32;34256;-86
2022/06/17 09:04:33;;;;;;;2.25;1.20;;;;;;;29.09;39.46;100193.44;4414367;32;34639;-85
2022/06/17 09:07:08;;;;;;;3.05;1.40;;;;;;;29.41;38.06;100194.28;4403590;32;32874;-84
2022/06/17 09:09:56;;;;;;;6.28;1.92;;;;;;;29.48;38.99;100192.53;4413700;32;32350;-85
2022/06/17 09:12:54;;;;;;;5.22;1.52;;;;;;;29.63;36.11;100190.78;4403866;32;32829;-86
2022/06/17 09:15:44;;;;;;;2.37;2.17;;;;;;;29.62;35.68;100199.97;4413726;32;34226;-85
2022/06/17 09:18:39;;;;;;;4.25;1.92;;;;;;;30.12;37.67;100195.81;4413158;32;33271;-85
2022/06/17 09:21:36;;;;;;;2.85;1.33;;;;;;;30.05;37.57;100203.91;4403787;32;33002;-85
2022/06/17 09:24:09;;;;;;;2.08;1.52;;;;;;;29.56;34.91;100206.97;4416180;32;34477;-85
2022/06/17 09:26:57;;;;;;;1.52;1.30;;;;;;;29.70;32.81;100204.50;4420841;32;33850;-87
2022/06/17 09:32:20;;;;;;;2.10;1.83;;;;;;;29.29;38.64;100208.31;4425451;32;32113;-84
2022/06/17 09:35:21;;;;;;;3.08;1.73;;;;;;;29.75;37.23;100205.66;4417178;32;33920;-87
2022/06/17 09:38:06;;;;;;;1.73;1.30;;;;;;;30.22;36.71;100210.06;4416152;32;33720;-84
2022/06/17 09:40:47;;;;;;;3.15;1.80;;;;;;;29.90;38.99;100213.03;4412576;32;33556;-84
2022/06/17 09:43:31;;;;;;;2.20;1.60;;;;;;;30.12;37.79;100212.16;4417837;32;33209;-85
2022/06/17 09:46:33;;;;;;;1.87;1.55;;;;;;;30.25;37.27;100206.13;4401477;32;34629;-85
2022/06/17 09:49:08;;;;;;;3.60;1.85;;;;;;;30.13;37.18;100219.34;4408201;32;34140;-85
2022/06/17 09:51:43;;;;;;;7.35;2.12;;;;;;;29.94;36.36;100226.09;4414432;32;33433;-85
2022/06/17 09:54:35;;;;;;;1.70;1.60;;;;;;;30.14;36.33;100226.47;4414252;32;33427;-86
2022/06/17 09:57:09;;;;;;;2.20;1.20;;;;;;;30.15;35.53;100228.19;4391398;32;32433;-85
2022/06/17 09:59:47;;;;;;;3.37;1.55;;;;;;;30.48;35.50;100222.41;4421071;32;32645;-85
2022/06/17 10:02:23;;;;;;;3.15;1.90;;;;;;;30.36;35.28;100238.38;4416408;32;33169;-85
2022/06/17 10:04:55;;;;;;;3.70;2.37;;;;;;;30.45;36.02;100233.69;4417284;32;32189;-85
2022/06/17 10:07:42;;;;;;;5.28;1.90;;;;;;;30.54;34.95;100233.41;4417735;32;34080;-85
2022/06/17 10:10:21;;;;;;;2.97;1.65;;;;;;;30.60;35.11;100237.28;4416544;32;34084;-85
2022/06/17 10:13:02;;;;;;;4.80;1.73;;;;;;;30.54;34.06;100238.03;4412913;32;33680;-85
2022/06/17 10:15:40;;;;;;;1.75;1.50;;;;;;;30.38;34.65;100255.38;4413268;32;33890;-85
2022/06/17 10:18:37;;;;;;;3.40;2.00;;;;;;;30.46;33.82;100246.28;4405792;32;34547;-85
2022/06/17 10:21:34;;;;;;;4.47;1.90;;;;;;;30.22;33.87;100250.91;4428404;32;34134;-85
2022/06/17 10:24:16;;;;;;;7.00;1.92;;;;;;;30.57;34.20;100243.09;4418247;32;32473;-88
2022/06/17 10:27:12;;;;;;;4.20;1.80;;;;;;;30.53;35.76;100245.38;4419100;32;33436;-88
2022/06/17 10:30:50;;;;;;;4.62;1.80;;;;;;;30.64;34.88;100251.38;4408565;32;33195;-86
2022/06/17 10:33:20;;;;;;;2.62;1.77;;;;;;;30.77;34.39;100244.28;4410862;32;33973;-87
2022/06/17 10:35:59;;;;;;;9.23;2.10;;;;;;;30.96;34.17;100242.88;4414453;32;33073;-86
2022/06/17 10:38:37;;;;;;;3.17;1.70;;;;;;;30.85;33.08;100240.59;4408925;32;32535;-86
2022/06/17 10:41:17;;;;;;;2.58;1.75;;;;;;;30.94;33.48;100246.81;4419397;32;33483;-87
2022/06/17 10:43:50;;;;;;;2.42;1.42;;;;;;;30.20;33.30;100254.88;4406463;32;32693;-87
2022/06/17 10:46:24;;;;;;;3.37;1.67;;;;;;;30.63;32.84;100245.09;4405536;32;33425;-87
2022/06/17 10:49:03;;;;;;;6.72;2.30;;;;;;;30.57;32.17;100245.81;4404461;32;34063;-87
2022/06/17 10:51:38;;;;;;;5.03;2.28;;;;;;;30.48;32.51;100244.19;4414935;32;33168;-87
2022/06/17 10:54:31;;;;;;;3.42;2.10;;;;;;;29.96;31.81;100250.41;4415265;32;34488;-85
2022/06/17 10:57:09;;;;;;;4.40;1.95;;;;;;;29.87;32.16;100254.25;4418903;32;33696;-85
2022/06/17 10:59:44;;;;;;;2.65;1.67;;;;;;;30.01;32.69;100256.19;4419480;32;32176;-85
2022/06/17 11:02:30;;;;;;;5.03;2.08;;;;;;;30.44;32.21;100251.91;4407230;32;33740;-85
2022/06/17 11:05:02;;;;;;;2.65;2.45;;;;;;;30.39;32.58;100251.63;4419973;32;34025;-85
2022/06/17 11:07:37;;;;;;;4.07;2.17;;;;;;;29.97;33.42;100249.41;4430756;32;34157;-85
2022/06/17 11:10:13;;;;;;;2.33;1.80;;;;;;;29.59;35.29;100260.19;4416224;32;32952;-85
2022/06/17 11:12:56;;;;;;;2.28;2.00;;;;;;;29.83;32.82;100251.03;4429098;32;34187;-85
2022/06/17 11:15:34;;;;;;;3.75;2.15;;;;;;;30.06;32.86;100256.47;4420577;32;34611;-93
2022/06/17 11:19:22;;;;;;;7.15;2.00;;;;;;;30.33;32.72;100250.47;4393213;32;34591;-93
2022/06/17 11:21:56;;;;;;;2.12;1.80;;;;;;;30.29;31.04;100251.00;4385778;32;32512;-90
2022/06/17 11:24:40;;;;;;;5.20;2.05;;;;;;;30.03;30.57;100256.84;4375057;32;33746;-90
2022/06/17 11:27:27;;;;;;;5.55;1.77;;;;;;;30.04;30.08;100258.53;4373943;32;30855;-90
2022/06/17 11:30:30;;;;;;;3.60;2.17;;;;;;;29.40;30.85;100266.91;4372331;32;33284;-89
2022/06/17 11:33:00;;;;;;;3.65;2.03;;;;;;;29.51;31.46;100257.47;4372711;32;31895;-90
2022/06/17 11:35:32;;;;;;;2.95;1.50;;;;;;;29.76;31.88;100260.94;4370450;32;34020;-90
2022/06/17 11:38:12;;;;;;;2.12;1.75;;;;;;;30.05;32.93;100254.75;4390598;32;34073;-89
2022/06/17 11:41:00;;;;;;;2.25;1.77;;;;;;;29.69;33.03;100257.25;4389534;32;34323;-90
2022/06/17 11:43:41;;;;;;;6.28;1.90;;;;;;;29.80;34.38;100251.38;4398144;32;32656;-90
2022/06/17 11:46:17;;;;;;;4.35;2.05;;;;;;;30.06;31.77;100256.47;4394593;32;32837;-90
2022/06/17 11:48:58;;;;;;;2.00;1.52;;;;;;;29.63;33.01;100256.09;4406172;32;33449;-90
2022/06/17 11:51:33;;;;;;;3.12;2.20;;;;;;;29.59;33.25;100262.91;4403037;32;32401;-89
2022/06/17 11:54:10;;;;;;;4.50;2.37;;;;;;;29.66;33.41;100266.59;4429797;32;33430;-89
2022/06/17 11:56:43;;;;;;;4.40;2.20;;;;;;;29.70;32.59;100251.63;4405284;32;33475;-89
2022/06/17 11:59:18;;;;;;;2.17;2.00;;;;;;;29.12;34.18;100258.34;4415680;32;33135;-88
2022/06/17 12:02:01;;;;;;;3.42;2.22;;;;;;;29.14;32.84;100242.69;4414021;32;33497;-89
2022/06/17 12:04:35;;;;;;;4.03;2.33;;;;;;;29.01;33.04;100242.44;4423807;32;32746;-89
2022/06/17 12:07:19;;;;;;;7.22;2.17;;;;;;;29.01;32.21;100234.28;4416917;32;32572;-89
2022/06/17 12:10:05;;;;;;;2.70;1.98;;;;;;;29.26;32.07;100238.56;4415190;32;33385;-89
2022/06/17 12:12:34;;;;;;;2.75;2.30;;;;;;;29.45;31.20;100226.41;4405178;32;33658;-89
2022/06/17 12:15:27;;;;;;;2.30;1.83;;;;;;;29.30;33.63;100229.03;4419501;32;29990;-89
2022/06/17 12:17:58;;;;;;;3.83;1.83;;;;;;;29.68;31.30;100212.84;4401986;32;33884;-89